Time;durP1;ratioP1;P1;durP2;ratioP2;P2;SDS_P1;SDS_P2;PMS_P1;PMS_P2;Temp;Humidity;BMP_temperature;BMP_pressure;BME280_temperature;BME280_humidity;BME280_pressure;Samples;Min_cycle;Max_cycle;Signal;HPM_P1;HPM_P2
2023/04/08 00:00:28;;;;;;;29.58;15.63;;;;;;;7.19;100.00;102099.75;5228055;28;20049;-67
2023/04/08 00:03:03;;;;;;;28.08;16.25;;;;;;;7.17;100.00;102105.16;5226158;28;20045;-67
2023/04/08 00:05:35;;;;;;;31.38;15.77;;;;;;;7.21;100.00;102104.09;5229326;28;20509;-68
2023/04/08 00:08:06;;;;;;;25.90;15.43;;;;;;;7.17;100.00;102105.16;5227967;28;20037;-67
2023/04/08 00:10:38;;;;;;;31.52;15.77;;;;;;;7.18;100.00;102103.34;5229161;28;20029;-67
2023/04/08 00:13:09;;;;;;;29.38;16.55;;;;;;;7.17;100.00;102104.25;5225450;28;20107;-66
2023/04/08 00:15:41;;;;;;;27.15;16.50;;;;;;;7.19;100.00;102108.59;5225980;28;20036;-67
2023/04/08 00:18:16;;;;;;;31.27;16.77;;;;;;;7.18;100.00;102100.69;5226143;28;20127;-67
2023/04/08 00:20:47;;;;;;;27.75;16.40;;;;;;;7.19;100.00;102099.75;5225281;28;20033;-67
2023/04/08 00:23:20;;;;;;;27.73;16.33;;;;;;;7.20;100.00;102101.50;5225177;28;20496;-67
2023/04/08 00:25:51;;;;;;;30.85;16.45;;;;;;;7.20;100.00;102098.84;5219732;28;20021;-67
2023/04/08 00:28:23;;;;;;;30.95;17.17;;;;;;;7.22;100.00;102104.94;5226660;28;20044;-67
2023/04/08 00:30:54;;;;;;;29.02;17.40;;;;;;;7.21;100.00;102098.78;5219336;28;20030;-67
2023/04/08 00:33:25;;;;;;;34.65;16.67;;;;;;;7.21;100.00;102109.41;5224916;28;20057;-67
2023/04/08 00:35:57;;;;;;;33.00;17.17;;;;;;;7.21;100.00;102104.09;5224950;28;20064;-67
2023/04/08 00:38:28;;;;;;;31.85;17.27;;;;;;;7.25;100.00;102107.50;5219911;28;20472;-67
2023/04/08 00:40:59;;;;;;;33.17;18.17;;;;;;;7.24;100.00;102098.63;5227103;28;20068;-67
2023/04/08 00:43:31;;;;;;;28.05;16.98;;;;;;;7.26;100.00;102104.75;5227516;28;20049;-67
2023/04/08 00:46:03;;;;;;;32.63;17.33;;;;;;;7.24;100.00;102111.06;5226992;28;20063;-67
2023/04/08 00:48:35;;;;;;;34.45;19.25;;;;;;;7.26;100.00;102114.50;5222989;28;20471;-67
2023/04/08 00:51:07;;;;;;;37.40;18.55;;;;;;;7.25;100.00;102115.44;5227132;28;20037;-67
2023/04/08 00:53:38;;;;;;;37.47;19.25;;;;;;;7.24;100.00;102109.25;5226035;28;20035;-67
2023/04/08 00:56:10;;;;;;;35.83;20.35;;;;;;;7.26;100.00;102114.50;5224604;28;20037;-67
2023/04/08 00:58:41;;;;;;;35.00;19.05;;;;;;;7.24;100.00;102111.91;5223515;28;20040;-67
2023/04/08 01:01:24;;;;;;;33.42;19.17;;;;;;;7.27;100.00;102113.59;5222718;28;20128;-67
2023/04/08 01:04:14;;;;;;;33.55;18.75;;;;;;;7.38;100.00;102118.44;5226947;28;20040;-67
2023/04/08 01:07:19;;;;;;;35.75;20.00;;;;;;;7.32;100.00;102121.34;5225373;28;20133;-67
2023/04/08 01:09:53;;;;;;;31.98;19.48;;;;;;;7.33;100.00;102115.13;5231846;28;20061;-67
2023/04/08 01:12:28;;;;;;;38.88;21.10;;;;;;;7.33;100.00;102112.47;5232800;28;20053;-67
2023/04/08 01:15:05;;;;;;;36.42;20.10;;;;;;;7.43;100.00;102119.09;5234529;28;20044;-67
2023/04/08 01:17:37;;;;;;;41.85;20.95;;;;;;;7.34;100.00;102120.34;5224906;28;20160;-67
2023/04/08 01:20:10;;;;;;;38.60;20.35;;;;;;;7.35;100.00;102113.25;5225826;28;20907;-67
2023/04/08 01:23:00;;;;;;;39.85;21.92;;;;;;;7.37;100.00;102120.22;5224825;28;20029;-67
2023/04/08 01:25:38;;;;;;;39.33;22.00;;;;;;;7.35;100.00;102121.22;5223413;28;20045;-67
2023/04/08 01:28:14;;;;;;;46.40;21.88;;;;;;;7.36;100.00;102122.94;5225401;28;20572;-67
2023/04/08 01:30:48;;;;;;;46.75;23.08;;;;;;;7.34;100.00;102125.66;5231586;28;20091;-67
2023/04/08 01:33:21;;;;;;;37.17;21.93;;;;;;;7.37;100.00;102124.69;5228163;28;20042;-67
2023/04/08 01:35:54;;;;;;;43.60;25.27;;;;;;;7.35;100.00;102122.09;5222163;28;20111;-67
2023/04/08 01:38:27;;;;;;;43.45;24.00;;;;;;;7.33;100.00;102123.94;5221904;28;20025;-67
2023/04/08 01:40:59;;;;;;;40.90;22.67;;;;;;;7.36;100.00;102122.94;5222820;28;20024;-67
2023/04/08 01:43:32;;;;;;;45.58;23.33;;;;;;;7.36;100.00;102123.78;5221069;28;20036;-67
2023/04/08 01:46:05;;;;;;;39.15;22.25;;;;;;;7.38;100.00;102131.69;5231207;28;20037;-67
2023/04/08 01:48:37;;;;;;;45.92;23.48;;;;;;;7.39;100.00;102122.81;5234885;28;20057;-67
2023/04/08 01:51:10;;;;;;;41.65;22.85;;;;;;;7.49;100.00;102136.56;5226836;28;20136;-67
2023/04/08 01:53:43;;;;;;;40.60;23.30;;;;;;;7.41;100.00;102134.25;5228760;28;20032;-67
2023/04/08 01:56:15;;;;;;;44.58;24.80;;;;;;;7.39;100.00;102129.00;5238002;28;20033;-67
2023/04/08 01:58:53;;;;;;;47.30;24.73;;;;;;;7.42;100.00;102133.28;5233565;28;20036;-67
2023/04/08 02:01:27;;;;;;;51.15;25.52;;;;;;;7.39;100.00;102131.66;5221632;28;20496;-66
2023/04/08 02:04:00;;;;;;;41.60;24.50;;;;;;;7.39;100.00;102122.81;5237687;28;20111;-66
2023/04/08 02:06:32;;;;;;;51.67;24.75;;;;;;;7.44;100.00;102128.78;5242173;28;20031;-66
2023/04/08 02:09:04;;;;;;;50.88;24.73;;;;;;;7.41;100.00;102134.25;5245439;28;20025;-66
2023/04/08 02:11:35;;;;;;;50.03;25.52;;;;;;;7.38;100.00;102137.91;5233103;28;20135;-66
2023/04/08 02:14:07;;;;;;;52.08;25.52;;;;;;;7.37;100.00;102130.00;5233747;28;20033;-66
2023/04/08 02:17:07;;;;;;;55.22;26.42;;;;;;;7.36;100.00;102133.56;5234474;28;20029;-66
2023/04/08 02:20:00;;;;;;;52.70;27.02;;;;;;;7.39;100.00;102138.75;5232176;28;20026;-66
2023/04/08 02:22:42;;;;;;;45.40;26.75;;;;;;;7.37;100.00;102140.63;5240839;28;20115;-66
2023/04/08 02:25:15;;;;;;;54.00;27.85;;;;;;;7.33;100.00;102141.69;5223822;28;20022;-66
2023/04/08 02:27:49;;;;;;;54.63;28.98;;;;;;;7.29;100.00;102132.09;5242349;28;20029;-66
2023/04/08 02:30:24;;;;;;;52.78;27.60;;;;;;;7.30;100.00;102139.13;5236844;28;20068;-66
2023/04/08 02:32:56;;;;;;;55.85;28.17;;;;;;;7.30;100.00;102144.44;5237340;28;20514;-66
2023/04/08 02:35:28;;;;;;;60.33;28.95;;;;;;;7.31;100.00;102141.72;5233416;28;20071;-66
2023/04/08 02:37:59;;;;;;;57.92;28.02;;;;;;;7.30;100.00;102140.00;5240953;28;20391;-66
2023/04/08 02:40:32;;;;;;;58.15;28.35;;;;;;;7.28;100.00;102147.16;5232731;28;20036;-66
2023/04/08 02:43:03;;;;;;;53.90;29.02;;;;;;;7.26;100.00;102144.56;5227408;28;20033;-66
2023/04/08 02:45:41;;;;;;;57.20;29.50;;;;;;;7.28;100.00;102155.13;5227192;28;20025;-67
2023/04/08 02:48:12;;;;;;;59.33;29.38;;;;;;;7.26;100.00;102149.88;5233002;28;20237;-67
2023/04/08 02:50:44;;;;;;;58.92;31.45;;;;;;;7.25;100.00;102158.78;5232981;28;20468;-67
2023/04/08 02:53:15;;;;;;;54.30;31.17;;;;;;;7.32;100.00;102155.88;5233907;28;20489;-67
2023/04/08 02:55:46;;;;;;;62.15;31.95;;;;;;;7.25;100.00;102160.56;5227928;28;20599;-67
2023/04/08 02:58:18;;;;;;;63.53;31.52;;;;;;;7.26;100.00;102162.28;5230672;28;20026;-67
2023/04/08 03:00:49;;;;;;;57.78;30.98;;;;;;;7.25;100.00;102164.09;5231592;28;20111;-67
2023/04/08 03:03:28;;;;;;;61.05;31.90;;;;;;;7.24;100.00;102166.81;5225234;28;20082;-67
2023/04/08 03:05:59;;;;;;;71.57;32.35;;;;;;;7.23;100.00;102160.63;5228551;28;20080;-67
2023/04/08 03:08:31;;;;;;;69.53;33.30;;;;;;;7.22;100.00;102160.69;5236683;28;20033;-67
2023/04/08 03:11:02;;;;;;;60.22;30.40;;;;;;;7.22;100.00;102166.84;5231452;28;20025;-67
2023/04/08 03:13:34;;;;;;;56.33;31.23;;;;;;;7.23;100.00;102167.75;5227825;28;20029;-67
2023/04/08 03:16:06;;;;;;;63.30;31.90;;;;;;;7.23;100.00;102168.59;5224809;28;20391;-67
2023/04/08 03:18:37;;;;;;;66.78;31.98;;;;;;;7.23;100.00;102165.09;5223774;28;20029;-67
2023/04/08 03:21:09;;;;;;;68.22;32.75;;;;;;;7.22;100.00;102158.91;5226832;28;20044;-67
2023/04/08 03:23:40;;;;;;;67.30;32.95;;;;;;;7.23;100.00;102160.63;5228306;28;20028;-67
2023/04/08 03:26:12;;;;;;;66.38;32.50;;;;;;;7.26;100.00;102159.63;5231023;28;20040;-67
2023/04/08 03:28:43;;;;;;;68.63;33.22;;;;;;;7.26;100.00;102167.59;5225101;28;20032;-67
2023/04/08 03:31:15;;;;;;;65.85;32.85;;;;;;;7.25;100.00;102165.88;5225714;28;20405;-67
2023/04/08 03:33:46;;;;;;;72.05;33.67;;;;;;;7.27;100.00;102166.69;5227052;28;20036;-67
2023/04/08 03:36:17;;;;;;;71.47;32.85;;;;;;;7.25;100.00;102168.53;5227617;28;20029;-67
2023/04/08 03:38:49;;;;;;;73.10;33.83;;;;;;;7.23;100.00;102159.78;5229301;28;20029;-67
2023/04/08 03:41:20;;;;;;;75.05;34.55;;;;;;;7.25;100.00;102172.06;5237367;28;20440;-67
2023/04/08 03:43:52;;;;;;;68.03;32.10;;;;;;;7.26;100.00;102168.44;5223887;28;20080;-67
2023/04/08 03:46:23;;;;;;;71.68;34.47;;;;;;;7.29;100.00;102164.81;5224916;28;20033;-67
2023/04/08 03:48:54;;;;;;;66.90;33.70;;;;;;;7.35;100.00;102161.06;5220653;28;20033;-67
2023/04/08 03:51:27;;;;;;;73.03;33.22;;;;;;;7.33;100.00;102161.13;5223604;28;20048;-67
2023/04/08 03:53:58;;;;;;;67.30;32.42;;;;;;;7.33;100.00;102166.44;5229451;28;20019;-66
2023/04/08 03:56:30;;;;;;;67.05;32.33;;;;;;;7.35;100.00;102174.34;5226829;28;20131;-67
2023/04/08 03:59:01;;;;;;;81.45;34.60;;;;;;;7.31;100.00;102175.38;5223951;28;20041;-67
2023/04/08 04:01:32;;;;;;;72.07;33.25;;;;;;;7.30;100.00;102171.84;5225589;28;20041;-67
2023/04/08 04:04:04;;;;;;;71.78;33.20;;;;;;;7.32;100.00;102170.00;5223719;28;20567;-67
2023/04/08 04:06:36;;;;;;;74.65;33.67;;;;;;;7.36;100.00;102170.72;5226380;28;20043;-67
2023/04/08 04:09:07;;;;;;;64.72;31.17;;;;;;;7.44;100.00;102173.91;5223828;28;20503;-67
2023/04/08 04:11:39;;;;;;;64.85;32.33;;;;;;;7.35;100.00;102175.19;5227708;28;20380;-67
2023/04/08 04:14:10;;;;;;;76.05;33.67;;;;;;;7.34;100.00;102167.28;5226288;28;20059;-67
2023/04/08 04:16:41;;;;;;;70.13;33.25;;;;;;;7.34;100.00;102173.44;5226375;28;20040;-67
2023/04/08 04:19:13;;;;;;;74.88;34.42;;;;;;;7.34;100.00;102178.75;5224899;28;20021;-67
2023/04/08 04:21:44;;;;;;;75.15;33.85;;;;;;;7.35;100.00;102184.94;5225026;28;20718;-67
2023/04/08 04:24:16;;;;;;;80.78;34.25;;;;;;;7.34;100.00;102188.53;5225509;28;20037;-67
2023/04/08 04:26:47;;;;;;;76.75;34.28;;;;;;;7.33;100.00;102186.81;5226981;28;20040;-67
2023/04/08 04:29:18;;;;;;;76.28;35.70;;;;;;;7.33;100.00;102186.81;5225722;28;20091;-67
2023/04/08 04:31:50;;;;;;;69.65;35.25;;;;;;;7.31;100.00;102183.34;5225673;28;20030;-67
2023/04/08 04:34:21;;;;;;;77.30;36.92;;;;;;;7.34;100.00;102189.38;5224539;28;20487;-66
2023/04/08 04:36:52;;;;;;;85.68;37.17;;;;;;;7.36;100.00;102189.31;5223115;28;20068;-66
2023/04/08 04:39:24;;;;;;;83.55;37.35;;;;;;;7.33;100.00;102200.94;5223398;28;20041;-67
2023/04/08 04:41:55;;;;;;;95.28;38.72;;;;;;;7.32;100.00;102201.00;5226401;28;20119;-67
2023/04/08 04:44:27;;;;;;;77.97;36.58;;;;;;;7.30;100.00;102195.75;5224253;28;20189;-67
2023/04/08 04:46:58;;;;;;;81.97;36.53;;;;;;;7.29;100.00;102204.66;5225760;28;20044;-67
2023/04/08 04:49:30;;;;;;;94.90;38.90;;;;;;;7.28;100.00;102205.56;5224435;28;20551;-67
2023/04/08 04:52:01;;;;;;;91.65;38.45;;;;;;;7.28;100.00;102213.53;5224389;28;20506;-67
2023/04/08 04:54:32;;;;;;;95.40;39.10;;;;;;;7.29;100.00;102214.38;5224887;28;20038;-66
2023/04/08 04:57:04;;;;;;;114.10;40.42;;;;;;;7.30;100.00;102213.47;5234578;28;20067;-66
2023/04/08 04:59:36;;;;;;;89.25;37.72;;;;;;;7.30;100.00;102218.78;5228949;28;20080;-67
2023/04/08 05:02:07;;;;;;;96.75;40.30;;;;;;;7.32;100.00;102224.88;5230946;28;20053;-67
2023/04/08 05:04:39;;;;;;;106.32;39.03;;;;;;;7.32;100.00;102219.56;5224222;28;20073;-66
2023/04/08 05:07:10;;;;;;;96.35;39.25;;;;;;;7.35;100.00;102224.78;5237941;28;20030;-66
2023/04/08 05:09:42;;;;;;;84.05;37.97;;;;;;;7.33;100.00;102221.31;5224853;28;20551;-67
2023/04/08 05:12:13;;;;;;;73.95;34.47;;;;;;;7.34;100.00;102225.69;5221414;28;20498;-66
2023/04/08 05:14:45;;;;;;;74.03;32.10;;;;;;;7.32;100.00;102235.50;5220205;28;20091;-67
2023/04/08 05:17:16;;;;;;;62.92;29.77;;;;;;;7.36;100.00;102231.81;5225132;28;20732;-66
2023/04/08 05:19:48;;;;;;;71.13;30.65;;;;;;;7.33;100.00;102234.59;5232733;28;20447;-66
2023/04/08 05:22:20;;;;;;;57.13;29.70;;;;;;;7.36;100.00;102230.00;5227817;28;20037;-66
2023/04/08 05:24:51;;;;;;;61.40;29.73;;;;;;;7.34;100.00;102231.84;5224148;28;20029;-67
2023/04/08 05:27:23;;;;;;;58.95;29.38;;;;;;;7.35;100.00;102233.59;5228918;28;20124;-67
2023/04/08 05:29:54;;;;;;;59.72;30.77;;;;;;;7.34;100.00;102236.31;5229473;28;20103;-66
2023/04/08 05:32:26;;;;;;;63.15;28.17;;;;;;;7.35;100.00;102230.94;5231180;28;20047;-66
2023/04/08 05:34:57;;;;;;;61.92;29.40;;;;;;;7.39;100.00;102243.16;5233404;28;20103;-66
2023/04/08 05:37:28;;;;;;;60.00;28.08;;;;;;;7.39;100.00;102237.00;5229597;28;20637;-66
2023/04/08 05:40:00;;;;;;;58.33;29.08;;;;;;;7.39;100.00;102243.16;5228850;28;20029;-66
2023/04/08 05:42:31;;;;;;;64.57;29.52;;;;;;;7.46;100.00;102243.78;5233705;28;20562;-66
2023/04/08 05:45:03;;;;;;;57.28;29.15;;;;;;;7.43;100.00;102244.75;5231405;28;20107;-66
2023/04/08 05:47:35;;;;;;;59.03;28.75;;;;;;;7.46;100.00;102246.44;5229884;28;20037;-67
2023/04/08 05:50:07;;;;;;;51.42;26.85;;;;;;;7.49;100.00;102248.09;5227279;28;20029;-66
2023/04/08 05:52:43;;;;;;;53.22;27.08;;;;;;;7.50;100.00;102252.47;5231528;28;21213;-66
2023/04/08 05:55:15;;;;;;;57.47;28.48;;;;;;;7.46;100.00;102254.41;5239434;28;20484;-66
2023/04/08 05:57:46;;;;;;;57.38;29.50;;;;;;;7.46;100.00;102252.63;5229146;28;20033;-66
2023/04/08 06:00:18;;;;;;;54.35;29.80;;;;;;;7.52;100.00;102264.78;5222641;28;20461;-66
2023/04/08 06:02:50;;;;;;;64.45;29.92;;;;;;;7.56;100.00;102266.38;5229711;28;20075;-66
2023/04/08 06:05:21;;;;;;;55.33;29.63;;;;;;;7.59;100.00;102268.94;5226713;28;20124;-66
2023/04/08 06:07:53;;;;;;;57.20;29.83;;;;;;;7.55;100.00;102271.75;5231032;28;20516;-66
2023/04/08 06:10:24;;;;;;;61.13;30.30;;;;;;;7.59;100.00;102270.69;5233565;28;20084;-66
2023/04/08 06:12:55;;;;;;;54.35;29.17;;;;;;;7.53;100.00;102265.63;5230252;28;20048;-66
2023/04/08 06:15:27;;;;;;;52.78;28.45;;;;;;;7.64;100.00;102272.22;5227793;28;20037;-66
2023/04/08 06:17:58;;;;;;;53.33;28.05;;;;;;;7.67;100.00;102271.25;5229428;28;20090;-66
2023/04/08 06:20:30;;;;;;;55.35;29.80;;;;;;;7.65;100.00;102273.97;5224106;28;20033;-66
2023/04/08 06:23:01;;;;;;;51.47;28.65;;;;;;;7.67;100.00;102281.88;5228139;28;20022;-66
2023/04/08 06:25:32;;;;;;;54.47;28.42;;;;;;;7.69;100.00;102279.16;5234308;28;20045;-66
2023/04/08 06:28:04;;;;;;;49.78;27.98;;;;;;;7.68;100.00;102288.91;5229272;28;20029;-66
2023/04/08 06:30:35;;;;;;;47.63;26.92;;;;;;;7.66;100.00;102291.63;5228381;28;20554;-66
2023/04/08 06:33:07;;;;;;;37.42;21.83;;;;;;;7.68;100.00;102293.38;5232650;28;20043;-66
2023/04/08 06:35:38;;;;;;;33.95;19.42;;;;;;;7.67;100.00;102289.84;5229601;28;20067;-66
2023/04/08 06:38:09;;;;;;;27.70;17.52;;;;;;;7.66;100.00;102288.13;5229028;28;20101;-66
2023/04/08 06:40:41;;;;;;;30.67;18.52;;;;;;;7.72;100.00;102300.28;5227164;28;20037;-66
2023/04/08 06:43:12;;;;;;;31.48;18.65;;;;;;;7.73;100.00;102288.72;5235213;28;20032;-66
2023/04/08 06:45:44;;;;;;;29.40;18.23;;;;;;;7.74;100.00;102295.78;5242727;28;20803;-66
2023/04/08 06:48:15;;;;;;;36.60;22.08;;;;;;;7.77;100.00;102301.81;5229402;28;20029;-66
2023/04/08 06:50:46;;;;;;;39.22;22.88;;;;;;;7.83;100.00;102295.41;5230033;28;20373;-66
2023/04/08 06:53:18;;;;;;;40.45;23.45;;;;;;;7.95;100.00;102297.53;5224584;28;20037;-66
2023/04/08 06:55:49;;;;;;;40.42;24.48;;;;;;;7.87;100.00;102307.63;5239362;28;20025;-66
2023/04/08 06:58:21;;;;;;;34.75;21.23;;;;;;;7.91;100.00;102306.56;5235606;28;20555;-66
2023/04/08 07:00:56;;;;;;;35.30;20.35;;;;;;;7.94;100.00;102305.56;5232730;28;20056;-67
2023/04/08 07:03:27;;;;;;;30.20;19.42;;;;;;;7.91;100.00;102303.03;5234112;28;20098;-66
2023/04/08 07:05:59;;;;;;;33.28;19.60;;;;;;;7.94;100.00;102311.75;5235775;28;20036;-66
2023/04/08 07:08:30;;;;;;;30.45;19.40;;;;;;;7.96;100.00;102312.56;5236090;28;20082;-66
2023/04/08 07:11:02;;;;;;;35.30;19.70;;;;;;;7.91;100.00;102314.53;5232731;28;20054;-66
2023/04/08 07:13:33;;;;;;;32.33;20.38;;;;;;;7.95;100.00;102317.94;5232834;28;20067;-66
2023/04/08 07:16:05;;;;;;;30.02;19.45;;;;;;;7.98;100.00;102315.16;5223658;28;20052;-66
2023/04/08 07:18:37;;;;;;;32.45;20.63;;;;;;;8.02;100.00;102319.41;5234950;28;20120;-66
2023/04/08 07:21:08;;;;;;;31.60;19.67;;;;;;;8.03;100.00;102326.44;5232226;28;20597;-66
2023/04/08 07:23:40;;;;;;;31.38;19.77;;;;;;;8.07;100.00;102333.34;5234681;28;20081;-66
2023/04/08 07:26:11;;;;;;;29.60;19.75;;;;;;;8.10;100.00;102335.03;5225386;28;20040;-66
2023/04/08 07:28:43;;;;;;;32.80;20.50;;;;;;;8.09;100.00;102339.47;5231439;28;20357;-66
2023/04/08 07:31:16;;;;;;;29.88;19.77;;;;;;;8.13;100.00;102345.53;5234358;28;20030;-66
2023/04/08 07:33:47;;;;;;;32.88;20.10;;;;;;;8.19;100.00;102342.63;5230304;28;20021;-66
2023/04/08 07:36:19;;;;;;;31.50;20.00;;;;;;;8.17;100.00;102345.34;5233375;28;20376;-66
2023/04/08 07:38:51;;;;;;;29.92;18.73;;;;;;;8.31;100.00;102350.06;5232203;28;20573;-66
2023/04/08 07:41:22;;;;;;;31.40;20.10;;;;;;;8.28;100.00;102346.66;5236476;28;20029;-66
2023/04/08 07:43:54;;;;;;;30.67;20.15;;;;;;;8.33;100.00;102356.19;5236680;28;20121;-66
2023/04/08 07:46:26;;;;;;;29.08;19.67;;;;;;;8.31;100.00;102350.06;5233378;28;20087;-66
2023/04/08 07:48:57;;;;;;;29.15;19.67;;;;;;;8.27;100.00;102343.16;5229070;28;20025;-66
2023/04/08 07:51:28;;;;;;;29.88;19.42;;;;;;;8.27;100.00;102348.47;5235034;28;20033;-66
2023/04/08 07:54:00;;;;;;;31.20;19.67;;;;;;;8.29;100.00;102353.72;5229789;28;20585;-66
2023/04/08 07:56:31;;;;;;;28.88;19.63;;;;;;;8.26;100.00;102349.38;5232926;28;20033;-66
2023/04/08 07:59:03;;;;;;;29.65;19.65;;;;;;;8.25;100.00;102353.00;5234614;28;20025;-66
2023/04/08 08:01:34;;;;;;;29.23;20.02;;;;;;;8.21;100.00;102362.03;5228225;28;20202;-66
2023/04/08 08:04:06;;;;;;;28.80;20.15;;;;;;;8.21;100.00;102362.03;5235847;28;20338;-67
2023/04/08 08:06:37;;;;;;;29.42;19.10;;;;;;;8.22;100.00;102366.41;5227077;28;20044;-66
2023/04/08 08:09:09;;;;;;;28.40;19.25;;;;;;;8.21;100.00;102364.69;5232270;28;20033;-66
2023/04/08 08:11:40;;;;;;;30.17;19.90;;;;;;;8.24;100.00;102368.06;5236875;28;20033;-66
2023/04/08 08:14:13;;;;;;;32.60;21.02;;;;;;;8.23;100.00;102378.78;5232341;28;20029;-67
2023/04/08 08:16:44;;;;;;;31.08;20.50;;;;;;;8.26;100.00;102381.31;5236417;28;20487;-67
2023/04/08 08:19:16;;;;;;;32.55;20.48;;;;;;;8.33;100.00;102380.13;5227324;28;20047;-67
2023/04/08 08:21:47;;;;;;;28.80;20.67;;;;;;;8.31;100.00;102379.31;5236432;28;20039;-66
2023/04/08 08:24:19;;;;;;;29.05;19.25;;;;;;;8.32;100.00;102386.38;5225367;28;20036;-67
2023/04/08 08:26:50;;;;;;;28.70;19.77;;;;;;;8.37;100.00;102381.72;5232430;28;20475;-67
2023/04/08 08:29:22;;;;;;;25.58;19.15;;;;;;;8.38;100.00;102390.56;5231962;28;20483;-67
2023/04/08 08:31:53;;;;;;;26.58;18.30;;;;;;;8.48;100.00;102386.63;5229325;28;20060;-66
2023/04/08 08:34:24;;;;;;;26.27;18.20;;;;;;;8.55;100.00;102389.88;5229616;28;20048;-66
2023/04/08 08:36:57;;;;;;;25.60;17.65;;;;;;;8.65;100.00;102393.88;5233975;28;20088;-66
2023/04/08 08:39:29;;;;;;;26.08;18.88;;;;;;;8.70;100.00;102394.53;5242184;28;20460;-66
2023/04/08 08:42:01;;;;;;;29.30;20.23;;;;;;;8.89;100.00;102393.72;5231376;28;20087;-66
2023/04/08 08:44:33;;;;;;;31.58;20.77;;;;;;;8.92;100.00;102398.91;5232583;28;20021;-66
2023/04/08 08:47:04;;;;;;;27.08;19.23;;;;;;;8.91;100.00;102397.19;5239340;28;20107;-66
2023/04/08 08:49:36;;;;;;;27.27;19.15;;;;;;;8.93;100.00;102395.31;5236407;28;20396;-66
2023/04/08 08:52:07;;;;;;;29.77;19.67;;;;;;;8.90;100.00;102395.44;5233195;28;20132;-66
2023/04/08 08:54:38;;;;;;;30.25;20.98;;;;;;;8.87;100.00;102401.75;5239621;28;20040;-66
2023/04/08 08:57:19;;;;;;;27.80;19.50;;;;;;;8.87;100.00;102403.56;5231619;28;20041;-66
2023/04/08 08:59:51;;;;;;;29.40;20.45;;;;;;;8.85;100.00;102408.09;5232392;28;20439;-66
2023/04/08 09:02:29;;;;;;;30.52;20.75;;;;;;;8.82;100.00;102404.66;5231598;28;20033;-66
2023/04/08 09:05:03;;;;;;;32.20;21.30;;;;;;;8.87;100.00;102407.09;5232666;28;20093;-66
2023/04/08 09:07:36;;;;;;;32.85;21.90;;;;;;;8.80;100.00;102409.19;5243517;28;20063;-66
2023/04/08 09:10:09;;;;;;;31.25;20.73;;;;;;;8.82;100.00;102411.75;5240272;28;20029;-66
2023/04/08 09:12:57;;;;;;;34.22;22.00;;;;;;;8.87;100.00;102415.06;5237863;28;20642;-66
2023/04/08 09:15:28;;;;;;;31.48;20.55;;;;;;;8.89;100.00;102415.88;5242642;28;20475;-66
2023/04/08 09:18:00;;;;;;;32.40;22.30;;;;;;;8.94;100.00;102418.34;5233457;28;20028;-66
2023/04/08 09:20:31;;;;;;;33.58;21.70;;;;;;;8.96;100.00;102413.81;5231599;28;20025;-66
2023/04/08 09:23:03;;;;;;;35.80;23.02;;;;;;;9.13;100.00;102421.06;5236224;28;20088;-66
2023/04/08 09:25:34;;;;;;;35.50;23.98;;;;;;;9.11;100.00;102428.22;5234783;28;20434;-66
2023/04/08 09:28:19;;;;;;;36.78;24.92;;;;;;;9.19;100.00;102429.63;5233699;28;20068;-66
2023/04/08 09:30:51;;;;;;;34.88;24.63;;;;;;;9.11;100.00;102426.44;5224503;28;20366;-66
2023/04/08 09:33:30;;;;;;;37.40;25.63;;;;;;;9.23;100.00;102430.34;5232640;28;20044;-66
2023/04/08 09:36:01;;;;;;;35.88;24.83;;;;;;;9.25;100.00;102444.47;5234321;28;20044;-66
2023/04/08 09:38:32;;;;;;;34.42;23.75;;;;;;;9.14;100.00;102433.41;5228905;28;20439;-66
2023/04/08 09:41:07;;;;;;;34.20;24.00;;;;;;;9.15;100.00;102430.69;5244277;28;20044;-66
2023/04/08 09:43:47;;;;;;;34.90;25.23;;;;;;;9.10;100.00;102438.00;5230821;28;20088;-66
2023/04/08 09:46:48;;;;;;;34.63;23.65;;;;;;;9.11;100.00;102437.09;5231897;28;20416;-66
2023/04/08 09:49:43;;;;;;;34.63;24.10;;;;;;;9.17;100.00;102436.81;5234416;28;20462;-66
2023/04/08 09:52:28;;;;;;;33.95;23.85;;;;;;;9.23;100.00;102439.19;5231538;28;20017;-66
2023/04/08 09:55:03;;;;;;;29.90;21.58;;;;;;;9.21;100.00;102440.22;5239227;28;20535;-66
2023/04/08 09:57:51;;;;;;;29.27;21.20;;;;;;;9.12;100.00;102445.94;5231507;28;20025;-66
2023/04/08 10:00:31;;;;;;;28.17;22.08;;;;;;;9.17;100.00;102431.50;5242664;28;20045;-66
2023/04/08 10:03:32;;;;;;;31.35;22.38;;;;;;;9.37;100.00;102443.03;5233363;28;20655;-66
2023/04/08 10:06:07;;;;;;;29.92;21.60;;;;;;;9.34;100.00;102446.72;5229372;28;20395;-66
2023/04/08 10:08:38;;;;;;;;;;;;;;;9.48;100.00;102447.88;5231885;28;20032;-66
2023/04/08 10:11:10;;;;;;;26.60;20.55;;;;;;;9.35;100.00;102445.75;5231017;28;19917;-66
2023/04/08 10:13:42;;;;;;;27.42;21.40;;;;;;;9.37;100.00;102440.38;5224287;28;20407;-66
2023/04/08 10:16:24;;;;;;;28.00;21.50;;;;;;;9.40;100.00;102441.09;5234564;28;20028;-66
2023/04/08 10:18:56;;;;;;;27.33;21.75;;;;;;;9.41;100.00;102447.28;5236869;28;20029;-66
2023/04/08 10:21:42;;;;;;;27.13;21.15;;;;;;;9.48;100.00;102440.75;5232966;28;20033;-66
2023/04/08 10:24:13;;;;;;;27.95;21.73;;;;;;;9.60;100.00;102448.16;5238482;28;20025;-66
2023/04/08 10:26:44;;;;;;;27.23;21.27;;;;;;;9.71;100.00;102441.47;5232050;28;20395;-66
2023/04/08 10:29:16;;;;;;;27.02;21.17;;;;;;;9.80;100.00;102435.72;5232536;28;20033;-66
2023/04/08 10:31:51;;;;;;;24.92;19.52;;;;;;;9.82;100.00;102431.16;5238419;28;20022;-66
2023/04/08 10:34:25;;;;;;;25.70;20.30;;;;;;;9.89;100.00;102442.38;5232641;28;20034;-66
2023/04/08 10:36:58;;;;;;;26.35;21.50;;;;;;;9.95;100.00;102431.41;5235053;28;20053;-66
2023/04/08 10:39:30;;;;;;;25.15;20.73;;;;;;;10.02;100.00;102438.19;5234234;28;20026;-66
2023/04/08 10:42:01;;;;;;;27.63;20.70;;;;;;;10.00;100.00;102426.75;5236975;28;20029;-66
2023/04/08 10:44:33;;;;;;;25.23;20.60;;;;;;;10.13;100.00;102429.69;5235753;28;20530;-66
2023/04/08 10:47:04;;;;;;;24.92;21.10;;;;;;;10.11;100.00;102429.75;5231810;28;20055;-66
2023/04/08 10:49:35;;;;;;;25.52;20.90;;;;;;;10.08;100.00;102427.22;5229214;28;20022;-66
2023/04/08 10:52:08;;;;;;;26.35;20.75;;;;;;;10.17;100.00;102428.59;5254645;28;20084;-66
2023/04/08 10:54:47;;;;;;;25.85;21.52;;;;;;;10.27;100.00;102427.19;5241819;28;20022;-66
2023/04/08 10:57:26;;;;;;;26.05;20.67;;;;;;;10.36;100.00;102416.09;5242207;28;20774;-66
2023/04/08 10:59:57;;;;;;;24.52;20.48;;;;;;;10.43;100.00;102416.63;5233699;28;20045;-66
2023/04/08 11:02:32;;;;;;;25.90;21.23;;;;;;;10.46;100.00;102412.94;5229357;28;20036;-66
2023/04/08 11:05:04;;;;;;;23.92;20.02;;;;;;;10.61;100.00;102414.84;5234589;28;20060;-66
2023/04/08 11:07:42;;;;;;;26.70;21.33;;;;;;;10.75;100.00;102416.78;5235428;28;20586;-66
2023/04/08 11:10:13;;;;;;;24.38;20.67;;;;;;;10.68;100.00;102415.38;5233280;28;20434;-66
2023/04/08 11:12:45;;;;;;;24.88;21.15;;;;;;;10.59;100.00;102406.03;5222711;28;20029;-66
2023/04/08 11:15:17;;;;;;;24.80;21.05;;;;;;;10.57;100.00;102403.44;5238762;28;20176;-66
2023/04/08 11:17:49;;;;;;;23.50;20.13;;;;;;;10.59;100.00;102409.56;5236122;28;20513;-66
2023/04/08 11:20:21;;;;;;;23.85;20.30;;;;;;;10.54;100.00;102403.59;5228960;28;20030;-66
2023/04/08 11:22:53;;;;;;;25.30;20.58;;;;;;;10.44;100.00;102402.34;5230214;28;20537;-66
2023/04/08 11:25:25;;;;;;;22.92;19.48;;;;;;;10.27;100.00;102397.84;5228986;28;20045;-66
2023/04/08 11:27:56;;;;;;;25.23;20.13;;;;;;;10.22;100.00;102391.88;5235925;28;20041;-66
2023/04/08 11:30:28;;;;;;;24.27;20.65;;;;;;;10.16;100.00;102397.50;5238084;28;20116;-66
2023/04/08 11:33:00;;;;;;;25.50;21.02;;;;;;;10.16;100.00;102400.16;5231804;28;20038;-66
2023/04/08 11:35:31;;;;;;;27.42;21.33;;;;;;;10.23;100.00;102393.59;5229098;28;20116;-66